createdAt,value
2023-03-19T00:02:17.008Z,12.40
2023-03-19T00:04:46.666Z,12.17
2023-03-19T00:07:15.813Z,12.00
2023-03-19T00:09:44.090Z,11.87
2023-03-19T00:12:13.007Z,11.33
2023-03-19T00:14:42.719Z,12.17
2023-03-19T00:17:11.118Z,12.50
2023-03-19T00:19:39.347Z,13.27
2023-03-19T00:22:07.551Z,12.57
2023-03-19T00:24:35.868Z,12.93
2023-03-19T00:27:04.576Z,12.50
2023-03-19T00:29:32.854Z,12.30
2023-03-19T00:32:02.440Z,12.33
2023-03-19T00:34:30.653Z,12.07
2023-03-19T00:36:59.008Z,11.80
2023-03-19T00:39:27.311Z,11.10
2023-03-19T00:41:55.533Z,11.50
2023-03-19T00:44:23.779Z,11.30
2023-03-19T00:46:51.963Z,10.87
2023-03-19T00:49:21.507Z,10.70
2023-03-19T00:51:49.680Z,10.83
2023-03-19T00:54:17.971Z,10.23
2023-03-19T00:56:46.263Z,11.23
2023-03-19T00:59:14.438Z,11.03
2023-03-19T01:01:42.773Z,11.13
2023-03-19T01:04:11.232Z,11.73
2023-03-19T01:06:40.853Z,11.23
2023-03-19T01:09:09.059Z,11.27
2023-03-19T01:11:37.328Z,10.67
2023-03-19T01:14:06.373Z,10.80
2023-03-19T01:16:35.640Z,10.30
2023-03-19T01:19:04.110Z,10.63
2023-03-19T01:21:32.327Z,10.70
2023-03-19T01:24:01.876Z,9.93
2023-03-19T01:26:30.078Z,10.20
2023-03-19T01:28:59.273Z,10.03
2023-03-19T01:31:27.520Z,10.37
2023-03-19T01:33:55.861Z,9.47
2023-03-19T01:36:24.648Z,9.93
2023-03-19T01:38:52.858Z,9.77
2023-03-19T01:41:22.559Z,9.43
2023-03-19T01:43:51.242Z,9.30
2023-03-19T01:46:23.959Z,9.40
2023-03-19T01:48:53.304Z,10.07
2023-03-19T01:51:25.061Z,9.27
2023-03-19T01:53:54.273Z,9.73
2023-03-19T01:56:25.690Z,9.83
2023-03-19T01:58:55.757Z,9.50
2023-03-19T02:01:24.528Z,9.73
2023-03-19T02:03:53.326Z,8.83
2023-03-19T02:06:22.519Z,8.73
2023-03-19T02:08:51.636Z,8.73
2023-03-19T02:11:20.326Z,9.43
2023-03-19T02:13:50.010Z,9.27
2023-03-19T02:16:18.243Z,9.07
2023-03-19T02:18:46.542Z,9.03
2023-03-19T02:21:16.565Z,9.37
2023-03-19T02:23:47.460Z,8.93
2023-03-19T02:26:17.527Z,9.17
2023-03-19T02:28:47.228Z,8.73
2023-03-19T02:31:16.022Z,9.13
2023-03-19T02:33:44.369Z,8.97
2023-03-19T02:36:17.267Z,8.80
2023-03-19T02:38:46.554Z,8.63
2023-03-19T02:41:14.756Z,9.10
2023-03-19T02:43:44.377Z,8.10
2023-03-19T02:46:13.877Z,7.97
2023-03-19T02:48:42.247Z,7.93
2023-03-19T02:51:10.588Z,7.77
2023-03-19T02:53:38.843Z,7.53
2023-03-19T02:56:07.347Z,7.70
2023-03-19T02:58:35.648Z,8.57
2023-03-19T03:01:06.364Z,8.23
2023-03-19T03:03:34.585Z,8.20
2023-03-19T03:06:02.781Z,8.00
2023-03-19T03:08:31.067Z,8.37
2023-03-19T03:10:59.252Z,8.43
2023-03-19T03:13:27.844Z,8.70
2023-03-19T03:15:56.211Z,8.47
2023-03-19T03:18:25.827Z,8.40
2023-03-19T03:20:54.503Z,8.47
2023-03-19T03:23:23.021Z,8.50
2023-03-19T03:25:52.083Z,8.50
2023-03-19T03:28:20.354Z,7.97
2023-03-19T03:30:49.077Z,7.90
2023-03-19T03:33:17.742Z,8.37
2023-03-19T03:35:47.472Z,8.73
2023-03-19T03:38:15.689Z,8.43
2023-03-19T03:40:44.033Z,8.10
2023-03-19T03:43:12.235Z,8.87
2023-03-19T03:45:40.623Z,8.63
2023-03-19T03:48:08.896Z,8.43
2023-03-19T03:50:37.147Z,8.10
2023-03-19T03:53:06.682Z,9.17
2023-03-19T03:55:34.863Z,8.37
2023-03-19T03:58:03.065Z,8.93
2023-03-19T04:00:31.571Z,9.27
2023-03-19T04:03:00.481Z,8.57
2023-03-19T04:05:28.662Z,8.47
2023-03-19T04:07:57.131Z,8.67
2023-03-19T04:10:26.685Z,9.03
2023-03-19T04:12:54.873Z,9.00
2023-03-19T04:15:23.071Z,8.90
2023-03-19T04:17:51.360Z,8.47
2023-03-19T04:20:19.602Z,9.00
2023-03-19T04:22:47.844Z,9.00
2023-03-19T04:25:16.084Z,9.13
2023-03-19T04:27:45.609Z,8.90
2023-03-19T04:30:14.579Z,9.50
2023-03-19T04:32:44.331Z,8.83
2023-03-19T04:35:12.563Z,9.20
2023-03-19T04:37:41.131Z,9.03
2023-03-19T04:40:10.130Z,9.50
2023-03-19T04:42:38.301Z,8.53
2023-03-19T04:45:08.483Z,9.00
2023-03-19T04:47:37.042Z,9.13
2023-03-19T04:50:05.556Z,9.23
2023-03-19T04:52:33.920Z,9.10
2023-03-19T04:55:02.147Z,8.97
2023-03-19T04:57:30.346Z,9.20
2023-03-19T04:59:58.549Z,9.90
2023-03-19T05:02:28.401Z,9.27
2023-03-19T05:04:56.601Z,9.70
2023-03-19T05:07:24.800Z,8.80
2023-03-19T05:09:53.006Z,9.10
2023-03-19T05:12:21.281Z,9.20
2023-03-19T05:14:49.567Z,8.77
2023-03-19T05:17:17.781Z,8.83
2023-03-19T05:19:47.356Z,9.50
2023-03-19T05:22:15.664Z,9.07
2023-03-19T05:24:43.988Z,9.27
2023-03-19T05:27:12.277Z,8.80
2023-03-19T05:29:41.091Z,8.87
2023-03-19T05:32:10.277Z,8.73
2023-03-19T05:34:38.590Z,9.30
2023-03-19T05:37:08.584Z,8.97
2023-03-19T05:39:36.964Z,9.00
2023-03-19T05:42:05.351Z,9.30
2023-03-19T05:44:33.552Z,9.37
2023-03-19T05:47:01.815Z,9.47
2023-03-19T05:49:30.163Z,10.33
2023-03-19T05:51:58.345Z,9.67
2023-03-19T05:54:28.267Z,10.50
2023-03-19T05:56:56.648Z,10.20
2023-03-19T05:59:24.878Z,9.67
2023-03-19T06:01:53.135Z,10.40
2023-03-19T06:04:21.484Z,10.63
2023-03-19T06:06:49.732Z,9.63
2023-03-19T06:09:17.989Z,9.87
2023-03-19T06:11:47.676Z,10.13
2023-03-19T06:14:16.085Z,10.27
2023-03-19T06:16:44.275Z,9.83
2023-03-19T06:19:12.492Z,9.70
2023-03-19T06:21:40.757Z,10.10
2023-03-19T06:24:09.296Z,10.60
2023-03-19T06:26:37.959Z,10.37
2023-03-19T06:29:07.651Z,10.80
2023-03-19T06:31:36.354Z,10.37
2023-03-19T06:34:04.742Z,10.80
2023-03-19T06:36:32.997Z,10.10
2023-03-19T06:39:01.578Z,10.30
2023-03-19T06:41:29.806Z,10.17
2023-03-19T06:43:58.057Z,10.03
2023-03-19T06:46:27.714Z,11.27
2023-03-19T06:48:56.043Z,11.90
2023-03-19T06:51:24.253Z,12.13
2023-03-19T06:53:52.621Z,10.00
2023-03-19T06:56:21.006Z,9.67
2023-03-19T06:58:49.234Z,10.03
2023-03-19T07:01:17.537Z,9.10
2023-03-19T07:03:47.188Z,8.60
2023-03-19T07:06:15.444Z,8.63
2023-03-19T07:08:46.308Z,7.53
2023-03-19T07:11:15.694Z,7.47
2023-03-19T07:13:44.010Z,7.03
2023-03-19T07:16:12.241Z,7.00
2023-03-19T07:18:40.699Z,6.87
2023-03-19T07:21:10.350Z,6.80
2023-03-19T07:23:38.560Z,6.90
2023-03-19T07:26:06.974Z,7.30
2023-03-19T07:28:35.654Z,6.90
2023-03-19T07:31:03.918Z,6.83
2023-03-19T07:33:32.206Z,6.70
2023-03-19T07:36:00.696Z,6.60
2023-03-19T07:38:30.597Z,7.00
2023-03-19T07:41:02.800Z,6.30
2023-03-19T07:43:31.378Z,6.53
2023-03-19T07:45:59.691Z,7.00
2023-03-19T07:48:27.939Z,6.83
2023-03-19T07:50:56.228Z,6.40
2023-03-19T07:53:24.486Z,6.20
2023-03-19T07:55:54.089Z,6.63
2023-03-19T07:58:22.457Z,7.10
2023-03-19T08:00:50.858Z,7.10
2023-03-19T08:03:19.196Z,7.40
2023-03-19T08:05:49.580Z,7.67
2023-03-19T08:08:19.154Z,7.60
2023-03-19T08:10:47.984Z,7.63
2023-03-19T08:13:17.689Z,8.00
2023-03-19T08:15:45.938Z,8.27
2023-03-19T08:18:14.124Z,7.73
2023-03-19T08:20:42.371Z,7.70
2023-03-19T08:23:10.650Z,7.77
2023-03-19T08:25:39.105Z,7.70
2023-03-19T08:28:07.542Z,8.30
2023-03-19T08:30:37.606Z,7.90
2023-03-19T08:33:06.191Z,7.73
2023-03-19T08:35:34.546Z,8.00
2023-03-19T08:38:02.795Z,8.17
2023-03-19T08:40:31.018Z,7.67
2023-03-19T08:42:59.257Z,8.10
2023-03-19T08:45:27.519Z,8.33
2023-03-19T08:47:58.992Z,8.07
2023-03-19T08:50:27.527Z,9.10
2023-03-19T08:52:56.388Z,7.97
2023-03-19T08:55:24.704Z,7.73
2023-03-19T08:57:52.924Z,7.60
2023-03-19T09:00:21.598Z,7.67
2023-03-19T09:02:49.903Z,7.87
2023-03-19T09:05:22.305Z,7.30
2023-03-19T09:07:51.928Z,8.90
2023-03-19T09:10:20.155Z,8.50
2023-03-19T09:12:48.676Z,8.63
2023-03-19T09:15:17.042Z,8.80
2023-03-19T09:17:45.489Z,8.70
2023-03-19T09:20:14.092Z,9.90
2023-03-19T09:22:43.696Z,9.43
2023-03-19T09:25:11.962Z,9.37
2023-03-19T09:27:40.314Z,9.07
2023-03-19T09:30:10.439Z,9.70
2023-03-19T09:32:38.688Z,9.97
2023-03-19T09:35:07.519Z,10.13
2023-03-19T09:37:35.999Z,9.03
2023-03-19T09:40:06.101Z,9.33
2023-03-19T09:42:46.595Z,9.10
2023-03-19T09:45:16.632Z,9.57
2023-03-19T09:47:45.367Z,9.50
2023-03-19T09:50:15.031Z,9.10
2023-03-19T09:52:45.818Z,9.23
2023-03-19T09:55:22.044Z,9.33
2023-03-19T09:57:50.409Z,8.17
2023-03-19T10:00:23.644Z,7.80
2023-03-19T10:02:55.484Z,12.53
2023-03-19T10:05:27.030Z,8.53
2023-03-19T10:08:05.412Z,8.27
2023-03-19T10:10:44.037Z,8.90
2023-03-19T10:13:15.351Z,9.53
2023-03-19T10:15:45.310Z,9.10
2023-03-19T10:18:18.006Z,8.97
2023-03-19T10:20:48.234Z,9.03
2023-03-19T10:23:26.143Z,9.73
2023-03-19T10:25:56.826Z,8.90
2023-03-19T10:28:25.135Z,9.33
2023-03-19T10:30:58.263Z,9.93
2023-03-19T10:33:27.388Z,9.77
2023-03-19T10:35:59.687Z,9.30
2023-03-19T10:38:28.573Z,9.90
2023-03-19T10:41:05.973Z,9.63
2023-03-19T10:43:35.704Z,9.43
2023-03-19T10:46:04.034Z,8.90
2023-03-19T10:48:33.390Z,9.60
2023-03-19T10:51:02.616Z,9.30
2023-03-19T10:53:33.518Z,9.13
2023-03-19T10:56:03.349Z,8.57
2023-03-19T10:58:33.896Z,8.67
2023-03-19T11:01:05.776Z,7.80
2023-03-19T11:03:34.985Z,7.90
2023-03-19T11:06:08.335Z,7.20
2023-03-19T11:08:37.986Z,6.47
2023-03-19T11:11:06.648Z,6.70
2023-03-19T11:13:37.206Z,6.63
2023-03-19T11:16:05.884Z,6.80
2023-03-19T11:18:38.450Z,6.30
2023-03-19T11:21:08.455Z,6.57
2023-03-19T11:23:40.193Z,6.40
2023-03-19T11:26:09.991Z,5.87
2023-03-19T11:28:40.131Z,6.57
2023-03-19T11:31:13.118Z,6.47
2023-03-19T11:33:47.267Z,6.00
2023-03-19T11:36:19.783Z,6.40
2023-03-19T11:38:56.443Z,6.63
2023-03-19T11:41:29.205Z,6.53
2023-03-19T11:44:00.821Z,6.43
2023-03-19T11:46:32.632Z,5.97
2023-03-19T11:49:09.976Z,6.40
2023-03-19T11:51:42.892Z,6.47
2023-03-19T11:54:15.369Z,6.83
2023-03-19T11:56:46.986Z,5.80
2023-03-19T11:59:23.874Z,6.70
2023-03-19T12:02:09.600Z,7.03
2023-03-19T12:04:51.291Z,6.27
2023-03-19T12:07:23.671Z,5.33
2023-03-19T12:09:57.361Z,5.40
2023-03-19T12:12:28.345Z,5.80
2023-03-19T12:15:06.472Z,5.50
2023-03-19T12:17:43.886Z,6.20
2023-03-19T12:20:17.201Z,5.97
2023-03-19T12:22:50.752Z,6.13
2023-03-19T12:25:25.487Z,6.07
2023-03-19T12:27:56.888Z,6.00
2023-03-19T12:30:31.857Z,6.20
2023-03-19T12:33:07.227Z,6.30
2023-03-19T12:35:36.454Z,6.37
2023-03-19T12:38:07.627Z,6.50
2023-03-19T12:40:38.170Z,6.57
2023-03-19T12:43:08.280Z,6.30
2023-03-19T12:45:40.561Z,6.37
2023-03-19T12:48:12.318Z,7.00
2023-03-19T12:50:42.393Z,5.97
2023-03-19T12:53:13.198Z,5.93
2023-03-19T12:55:43.270Z,6.60
2023-03-19T12:58:16.293Z,6.60
2023-03-19T13:00:49.982Z,6.83
2023-03-19T13:03:19.904Z,6.73
2023-03-19T13:05:49.660Z,7.47
2023-03-19T13:08:20.899Z,7.00
2023-03-19T13:10:49.226Z,7.27
2023-03-19T13:13:24.774Z,6.80
2023-03-19T13:15:56.849Z,7.20
2023-03-19T13:18:31.397Z,6.57
2023-03-19T13:21:07.658Z,6.13
2023-03-19T13:23:38.340Z,6.63
2023-03-19T13:26:09.664Z,6.00
2023-03-19T13:28:38.977Z,5.20
2023-03-19T13:31:09.798Z,4.60
2023-03-19T13:33:38.684Z,4.70
2023-03-19T13:36:07.823Z,4.07
2023-03-19T13:38:40.067Z,2.73
2023-03-19T13:41:28.476Z,3.13
2023-03-19T13:43:58.187Z,3.60
2023-03-19T13:46:40.732Z,3.83
2023-03-19T13:49:33.518Z,3.88
2023-03-19T13:52:04.025Z,3.42
2023-03-19T13:54:40.305Z,3.42
2023-03-19T13:57:19.448Z,3.20
2023-03-19T13:59:50.827Z,4.15
2023-03-19T14:02:37.735Z,3.60
2023-03-19T14:05:10.423Z,3.38
2023-03-19T14:07:40.388Z,4.40
2023-03-19T14:10:09.645Z,3.72
2023-03-19T14:12:38.710Z,3.72
2023-03-19T14:15:18.270Z,3.60
2023-03-19T14:17:48.070Z,3.30
2023-03-19T14:20:31.457Z,3.20
2023-03-19T14:23:39.481Z,3.60
2023-03-19T14:26:12.999Z,3.58
2023-03-19T14:28:47.124Z,4.13
2023-03-19T14:31:23.411Z,3.80
2023-03-19T14:33:54.175Z,4.00
2023-03-19T14:36:22.807Z,3.90
2023-03-19T14:38:52.579Z,3.90
2023-03-19T14:41:22.056Z,3.88
2023-03-19T14:43:57.754Z,4.03
2023-03-19T14:46:30.843Z,3.63
2023-03-19T14:49:28.969Z,4.03
2023-03-19T14:52:00.539Z,3.67
2023-03-19T14:54:32.589Z,3.42
2023-03-19T14:57:07.620Z,3.90
2023-03-19T14:59:40.061Z,4.00
2023-03-19T15:02:19.575Z,3.78
2023-03-19T15:04:48.543Z,4.05
2023-03-19T15:07:20.591Z,4.15
2023-03-19T15:09:51.646Z,3.92
2023-03-19T15:12:37.863Z,3.80
2023-03-19T15:15:15.162Z,4.30
2023-03-19T15:17:51.633Z,4.10
2023-03-19T15:20:26.422Z,4.15
2023-03-19T15:22:58.089Z,3.70
2023-03-19T15:25:26.987Z,3.92
2023-03-19T15:28:16.268Z,4.00
2023-03-19T15:30:54.867Z,4.10
2023-03-19T15:33:40.159Z,4.20
2023-03-19T15:36:12.009Z,4.25
2023-03-19T15:38:42.041Z,4.40
2023-03-19T15:41:12.106Z,4.35
2023-03-19T15:43:41.326Z,3.90
2023-03-19T15:46:12.007Z,4.18
2023-03-19T15:48:44.596Z,4.40
2023-03-19T15:51:14.498Z,4.32
2023-03-19T15:53:43.065Z,4.47
2023-03-19T15:56:11.434Z,5.38
2023-03-19T15:58:41.423Z,4.25
2023-03-19T16:01:11.131Z,4.70
2023-03-19T16:03:40.597Z,7.13
2023-03-19T16:06:15.520Z,5.63
2023-03-19T16:08:48.224Z,4.63
2023-03-19T16:11:30.267Z,5.25
2023-03-19T16:13:59.732Z,5.82
2023-03-19T16:16:30.633Z,5.47
2023-03-19T16:18:59.464Z,4.32
2023-03-19T16:21:36.052Z,4.25
2023-03-19T16:24:05.216Z,4.50
2023-03-19T16:26:38.464Z,3.83
2023-03-19T16:29:19.517Z,4.22
2023-03-19T16:31:51.736Z,4.32
2023-03-19T16:34:34.872Z,4.43
2023-03-19T16:37:04.604Z,3.13
2023-03-19T16:39:37.018Z,2.80
2023-03-19T16:42:23.212Z,2.30
2023-03-19T16:44:51.638Z,3.17
2023-03-19T16:47:19.823Z,2.97
2023-03-19T16:49:48.615Z,2.80
2023-03-19T16:52:19.489Z,2.70
2023-03-19T16:54:48.237Z,3.20
2023-03-19T16:57:17.924Z,3.30
2023-03-19T16:59:46.589Z,2.90
2023-03-19T17:02:15.471Z,3.45
2023-03-19T17:04:43.856Z,3.40
2023-03-19T17:07:12.345Z,3.70
2023-03-19T17:09:42.082Z,3.20
2023-03-19T17:12:14.641Z,3.10
2023-03-19T17:14:42.974Z,3.43
2023-03-19T17:17:17.852Z,3.50
2023-03-19T17:19:46.814Z,3.80
2023-03-19T17:22:15.115Z,4.40
2023-03-19T17:24:44.948Z,4.03
2023-03-19T17:27:13.252Z,4.87
2023-03-19T17:29:41.555Z,6.17
2023-03-19T17:32:15.191Z,6.20
2023-03-19T17:34:43.439Z,7.00
2023-03-19T17:37:14.286Z,6.93
2023-03-19T17:39:43.324Z,6.33
2023-03-19T17:42:18.968Z,7.60
2023-03-19T17:44:47.215Z,7.77
2023-03-19T17:47:15.674Z,7.57
2023-03-19T17:49:45.079Z,8.10
2023-03-19T17:52:15.657Z,7.97
2023-03-19T17:54:43.928Z,8.20
2023-03-19T17:57:18.496Z,8.60
2023-03-19T17:59:48.128Z,8.40
2023-03-19T18:02:24.666Z,9.33
2023-03-19T18:04:52.991Z,9.83
2023-03-19T18:07:21.211Z,10.13
2023-03-19T18:09:49.476Z,12.70
2023-03-19T18:12:17.779Z,12.10
2023-03-19T18:14:46.084Z,11.93
2023-03-19T18:17:17.899Z,12.13
2023-03-19T18:19:47.140Z,12.87
2023-03-19T18:22:16.530Z,11.70
2023-03-19T18:24:44.960Z,11.87
2023-03-19T18:27:14.611Z,12.40
2023-03-19T18:29:42.822Z,11.40
2023-03-19T18:32:15.506Z,11.33
2023-03-19T18:34:45.289Z,12.27
2023-03-19T18:37:16.653Z,12.40
2023-03-19T18:39:44.863Z,12.30
2023-03-19T18:42:14.150Z,12.83
2023-03-19T18:44:42.390Z,12.63
2023-03-19T18:47:14.194Z,13.40
2023-03-19T18:49:42.573Z,13.33
2023-03-19T18:52:15.893Z,13.30
2023-03-19T18:54:46.775Z,13.50
2023-03-19T18:57:15.704Z,14.13
2023-03-19T18:59:44.125Z,14.83
2023-03-19T19:02:21.370Z,15.47
2023-03-19T19:04:49.858Z,16.60
2023-03-19T19:07:19.476Z,16.67
2023-03-19T19:09:47.699Z,17.63
2023-03-19T19:12:18.959Z,19.63
2023-03-19T19:14:47.592Z,18.13
2023-03-19T19:17:17.805Z,20.27
2023-03-19T19:19:46.121Z,17.93
2023-03-19T19:22:16.417Z,17.87
2023-03-19T19:24:46.116Z,18.20
2023-03-19T19:27:18.114Z,18.30
2023-03-19T19:29:46.342Z,18.17
2023-03-19T19:32:19.907Z,18.13
2023-03-19T19:34:48.163Z,17.50
2023-03-19T19:37:18.573Z,16.70
2023-03-19T19:39:48.277Z,16.40
2023-03-19T19:42:17.874Z,17.70
2023-03-19T19:44:47.886Z,16.77
2023-03-19T19:47:16.576Z,17.87
2023-03-19T19:49:45.353Z,17.30
2023-03-19T19:52:14.716Z,16.30
2023-03-19T19:54:43.046Z,16.30
2023-03-19T19:57:18.462Z,16.77
2023-03-19T19:59:46.770Z,15.60
2023-03-19T20:02:21.576Z,16.43
2023-03-19T20:04:49.896Z,15.43
2023-03-19T20:07:18.154Z,15.37
2023-03-19T20:09:46.605Z,15.33
2023-03-19T20:12:24.873Z,15.20
2023-03-19T20:14:53.337Z,15.07
2023-03-19T20:17:22.143Z,15.37
2023-03-19T20:19:50.853Z,14.00
2023-03-19T20:22:19.059Z,14.80
2023-03-19T20:24:50.407Z,14.50
2023-03-19T20:27:22.807Z,15.70
2023-03-19T20:29:53.590Z,15.23
2023-03-19T20:32:31.628Z,14.87
2023-03-19T20:35:00.617Z,15.47
2023-03-19T20:37:29.162Z,15.57
2023-03-19T20:39:57.636Z,14.63
2023-03-19T20:42:28.695Z,14.77
2023-03-19T20:44:59.832Z,15.20
2023-03-19T20:47:28.119Z,14.63
2023-03-19T20:49:56.356Z,13.93
2023-03-19T20:52:25.469Z,14.57
2023-03-19T20:54:54.044Z,14.70
2023-03-19T20:57:29.051Z,14.43
2023-03-19T20:59:59.216Z,13.53
2023-03-19T21:02:28.389Z,14.60
2023-03-19T21:04:56.802Z,15.33
2023-03-19T21:07:29.682Z,15.03
2023-03-19T21:09:58.617Z,15.63
2023-03-19T21:12:29.289Z,16.37
2023-03-19T21:14:59.197Z,15.50
2023-03-19T21:17:28.629Z,15.50
2023-03-19T21:19:57.489Z,14.33
2023-03-19T21:22:28.387Z,13.87
2023-03-19T21:25:03.284Z,14.17
2023-03-19T21:27:32.075Z,13.73
2023-03-19T21:30:01.830Z,13.97
2023-03-19T21:32:30.226Z,15.03
2023-03-19T21:34:58.560Z,15.03
2023-03-19T21:37:26.822Z,14.70
2023-03-19T21:39:55.060Z,14.37
2023-03-19T21:42:23.856Z,14.03
2023-03-19T21:44:57.341Z,14.23
2023-03-19T21:47:27.425Z,13.93
2023-03-19T21:49:56.425Z,14.30
2023-03-19T21:52:24.830Z,15.20
2023-03-19T21:54:53.961Z,13.93
2023-03-19T21:57:22.213Z,13.40
2023-03-19T21:59:50.571Z,14.00
2023-03-19T22:02:36.717Z,15.10
2023-03-19T22:05:12.553Z,14.50
2023-03-19T22:07:41.231Z,14.33
2023-03-19T22:10:09.957Z,14.80
2023-03-19T22:12:38.453Z,14.80
2023-03-19T22:15:07.275Z,15.10
2023-03-19T22:17:35.517Z,14.80
2023-03-19T22:20:04.534Z,14.60
2023-03-19T22:22:34.174Z,14.37
2023-03-19T22:25:02.426Z,14.17
2023-03-19T22:27:30.687Z,14.03
2023-03-19T22:29:59.568Z,15.07
2023-03-19T22:32:27.788Z,14.23
2023-03-19T22:34:56.098Z,13.97
2023-03-19T22:37:26.689Z,13.93
2023-03-19T22:39:56.480Z,12.53
2023-03-19T22:42:26.075Z,13.80
2023-03-19T22:44:54.899Z,13.97
2023-03-19T22:47:24.101Z,15.90
2023-03-19T22:49:52.308Z,15.93
2023-03-19T22:52:20.508Z,15.77
2023-03-19T22:54:52.949Z,16.73
2023-03-19T22:57:22.546Z,16.57
2023-03-19T22:59:51.311Z,16.43
2023-03-19T23:02:19.635Z,15.67
2023-03-19T23:04:47.911Z,15.67
2023-03-19T23:07:16.195Z,15.57
2023-03-19T23:09:44.379Z,14.77
2023-03-19T23:12:13.606Z,15.67
2023-03-19T23:14:43.146Z,17.07
2023-03-19T23:17:17.352Z,16.60
2023-03-19T23:19:45.612Z,17.70
2023-03-19T23:22:16.566Z,16.30
2023-03-19T23:24:45.288Z,18.13
2023-03-19T23:27:21.216Z,18.87
2023-03-19T23:29:51.032Z,18.77
2023-03-19T23:32:19.239Z,19.53
2023-03-19T23:34:59.195Z,19.33
2023-03-19T23:37:28.682Z,21.30
2023-03-19T23:39:57.619Z,19.80
2023-03-19T23:42:28.622Z,19.67
2023-03-19T23:44:59.746Z,19.77
2023-03-19T23:47:28.541Z,18.87
2023-03-19T23:49:56.927Z,19.93
2023-03-19T23:52:25.350Z,20.37
2023-03-19T23:54:53.695Z,18.80
2023-03-19T23:57:22.724Z,19.23
2023-03-19T23:59:51.656Z,20.47
